Time;durP1;ratioP1;P1;durP2;ratioP2;P2;SDS_P1;SDS_P2;PMS_P1;PMS_P2;Temp;Humidity;BMP_temperature;BMP_pressure;BME280_temperature;BME280_humidity;BME280_pressure;Samples;Min_cycle;Max_cycle;Signal;HPM_P1;HPM_P2
2023/10/15 00:01:27;;;;;;;0.00;0.00;;;;;;;11.18;100.00;101672.47;5113590;28;20031;-42
2023/10/15 00:03:53;;;;;;;0.00;0.00;;;;;;;11.14;100.00;101677.34;5113822;28;20031;-43
2023/10/15 00:06:18;;;;;;;0.00;0.00;;;;;;;11.11;100.00;101674.13;5113593;28;20146;-42
2023/10/15 00:08:43;;;;;;;0.00;0.00;;;;;;;11.05;100.00;101658.63;5113804;28;20051;-44
2023/10/15 00:11:13;;;;;;;0.00;0.00;;;;;;;11.08;100.00;101667.22;5113446;28;20023;-44
2023/10/15 00:13:38;;;;;;;0.00;0.00;;;;;;;11.10;100.00;101657.13;5113513;28;20034;-42
2023/10/15 00:16:04;;;;;;;0.00;0.00;;;;;;;11.08;100.00;101661.81;5113662;28;20413;-43
2023/10/15 00:18:29;;;;;;;0.00;0.00;;;;;;;11.14;100.00;101655.81;5113165;28;20146;-45
2023/10/15 00:20:56;;;;;;;0.00;0.00;;;;;;;11.20;100.00;101656.97;5114866;27;20028;-44
2023/10/15 00:23:25;;;;;;;0.00;0.00;;;;;;;11.20;100.00;101660.50;5113918;28;20027;-44
2023/10/15 00:25:50;;;;;;;0.00;0.00;;;;;;;11.18;100.00;101657.13;5094912;28;20030;-43
2023/10/15 00:28:16;;;;;;;0.00;0.00;;;;;;;11.21;100.00;101658.66;5112739;28;20364;-44
2023/10/15 00:30:42;;;;;;;0.00;0.00;;;;;;;11.24;100.00;101660.19;5112200;28;20377;-42
2023/10/15 00:33:11;;;;;;;0.00;0.00;;;;;;;11.24;100.00;101650.22;5113380;28;20515;-44
2023/10/15 00:35:37;;;;;;;0.00;0.00;;;;;;;11.30;100.00;101659.53;5113334;28;20032;-43
2023/10/15 00:38:24;;;;;;;0.00;0.00;;;;;;;11.30;100.00;101654.16;5112852;28;20031;-44
2023/10/15 00:40:51;;;;;;;0.00;0.00;;;;;;;11.32;100.00;101673.66;5113434;28;20069;-45
2023/10/15 00:43:17;;;;;;;0.00;0.00;;;;;;;11.35;100.00;101673.34;5113188;28;20382;-46
2023/10/15 00:45:46;;;;;;;0.00;0.00;;;;;;;11.41;100.00;101672.69;5113331;28;20016;-43
2023/10/15 00:48:19;;;;;;;0.00;0.00;;;;;;;11.41;100.00;101664.59;5113475;28;20027;-44
2023/10/15 00:50:45;;;;;;;0.00;0.00;;;;;;;11.50;100.00;101668.97;5113644;28;20285;-44
2023/10/15 00:53:21;;;;;;;0.00;0.00;;;;;;;11.51;100.00;101670.66;5094754;28;20023;-45
2023/10/15 00:55:55;;;;;;;0.00;0.00;;;;;;;11.35;100.00;101670.66;5094611;28;20019;-46
2023/10/15 00:59:21;;;;;;;0.00;0.00;;;;;;;11.28;100.00;101661.53;5111963;28;20030;-45
2023/10/15 01:03:53;;;;;;;0.00;0.00;;;;;;;11.26;100.00;101674.34;5112182;28;20048;-44
2023/10/15 01:08:55;;;;;;;0.00;0.00;;;;;;;11.07;100.00;101691.66;5112457;28;20043;-45
2023/10/15 01:11:27;;;;;;;0.00;0.00;;;;;;;10.95;100.00;101693.78;5112826;28;20024;-44
2023/10/15 01:13:53;;;;;;;0.00;0.00;;;;;;;10.74;100.00;101692.38;5112662;28;20032;-45
2023/10/15 01:16:19;;;;;;;0.00;0.00;;;;;;;10.51;100.00;101696.66;5112467;28;20032;-45
2023/10/15 01:18:55;;;;;;;0.00;0.00;;;;;;;10.31;100.00;101685.25;5113060;28;20142;-42
2023/10/15 01:21:21;;;;;;;0.00;0.00;;;;;;;9.96;100.00;101681.66;5113980;28;20035;-47
2023/10/15 01:23:59;;;;;;;0.00;0.00;;;;;;;9.79;100.00;101679.84;5109168;28;20035;-48
2023/10/15 01:26:29;;;;;;;0.00;0.00;;;;;;;9.57;100.00;101675.81;5093010;28;20028;-45
2023/10/15 01:28:55;;;;;;;0.00;0.00;;;;;;;9.49;100.00;101678.44;5109232;28;20043;-43
2023/10/15 01:31:24;;;;;;;0.00;0.00;;;;;;;9.39;100.00;101679.34;5110826;28;20105;-47
2023/10/15 01:33:50;;;;;;;0.00;0.00;;;;;;;9.39;100.00;101686.56;5111633;28;20487;-42
2023/10/15 01:36:20;;;;;;;0.00;0.00;;;;;;;9.37;100.00;101681.34;5111308;28;20038;-46
2023/10/15 01:38:46;;;;;;;0.00;0.00;;;;;;;9.32;100.00;101688.16;5112212;28;20036;-46
2023/10/15 01:41:14;;;;;;;0.00;0.00;;;;;;;9.29;100.00;101680.41;5110948;28;20038;-47
2023/10/15 01:43:40;;;;;;;0.00;0.00;;;;;;;9.25;100.00;101679.88;5109349;28;20118;-46
2023/10/15 01:46:12;;;;;;;0.00;0.00;;;;;;;9.26;100.00;101689.63;5110971;28;20039;-49
2023/10/15 01:48:41;;;;;;;0.00;0.00;;;;;;;9.28;100.00;101692.16;5110458;28;20422;-47
2023/10/15 01:51:07;;;;;;;0.00;0.00;;;;;;;9.28;100.00;101686.78;5110715;28;20027;-46
2023/10/15 01:53:37;;;;;;;0.00;0.00;;;;;;;9.27;100.00;101685.94;5110181;28;20030;-46
2023/10/15 01:56:03;;;;;;;0.00;0.00;;;;;;;9.34;100.00;101681.63;5111505;28;20381;-48
2023/10/15 01:58:31;;;;;;;0.00;0.00;;;;;;;9.43;100.00;101679.88;5110970;28;20092;-46
2023/10/15 02:01:09;;;;;;;0.00;0.00;;;;;;;9.52;100.00;101664.66;5110932;28;20429;-45
2023/10/15 02:03:34;;;;;;;0.00;0.00;;;;;;;9.49;100.00;101678.44;5110383;28;20413;-43
2023/10/15 02:06:07;;;;;;;0.00;0.00;;;;;;;9.43;100.00;101706.75;5111942;28;20028;-44
2023/10/15 02:08:35;;;;;;;0.00;0.00;;;;;;;9.26;100.00;101716.47;5111966;28;20472;-40
2023/10/15 02:11:15;;;;;;;0.00;0.00;;;;;;;8.67;100.00;101715.97;5114440;28;20039;-39
2023/10/15 02:13:47;;;;;;;0.00;0.00;;;;;;;8.14;100.00;101717.38;5107664;28;20042;-39
2023/10/15 02:16:16;;;;;;;0.00;0.00;;;;;;;7.83;100.00;101718.56;5113374;28;20107;-40
2023/10/15 02:18:46;;;;;;;0.00;0.00;;;;;;;7.71;100.00;101704.44;5115479;28;20382;-40
2023/10/15 02:21:17;;;;;;;0.00;0.00;;;;;;;7.66;100.00;101720.97;5111081;28;20115;-41
2023/10/15 02:23:51;;;;;;;0.00;0.00;;;;;;;7.58;100.00;101728.00;5108759;28;20032;-42
2023/10/15 02:26:30;;;;;;;0.00;0.00;;;;;;;7.58;100.00;101730.69;5111058;28;20455;-47
2023/10/15 02:28:55;;;;;;;0.00;0.00;;;;;;;7.57;100.00;101732.53;5109529;28;20504;-45
2023/10/15 02:31:22;;;;;;;0.00;0.00;;;;;;;7.60;100.00;101742.94;5109934;28;20023;-46
2023/10/15 02:33:49;;;;;;;0.00;0.00;;;;;;;7.69;100.00;101744.81;5109623;28;20027;-46
2023/10/15 02:36:23;;;;;;;0.00;0.00;;;;;;;7.74;100.00;101748.88;5109083;28;20157;-46
2023/10/15 02:38:59;;;;;;;0.00;0.00;;;;;;;7.82;100.00;101755.25;5110426;28;20058;-43
2023/10/15 02:41:46;;;;;;;0.00;0.00;;;;;;;7.89;100.00;101755.50;5108222;28;20038;-46
2023/10/15 02:44:13;;;;;;;0.00;0.00;;;;;;;7.94;100.00;101739.84;5108741;28;20031;-46
2023/10/15 02:46:39;;;;;;;;;;;;;;;7.96;100.00;101742.41;5108577;28;20032;-47
2023/10/15 02:49:15;;;;;;;0.00;0.00;;;;;;;7.92;100.00;101736.44;5110660;28;19912;-44
2023/10/15 02:51:41;;;;;;;0.00;0.00;;;;;;;7.86;100.00;101718.28;5111256;28;20484;-42
2023/10/15 02:54:18;;;;;;;0.00;0.00;;;;;;;7.74;100.00;101712.22;5113839;28;20019;-43
2023/10/15 02:56:45;;;;;;;0.00;0.00;;;;;;;7.69;100.00;101719.84;5114898;28;20027;-48
2023/10/15 02:59:10;;;;;;;0.00;0.00;;;;;;;7.70;100.00;101738.44;5114573;28;20442;-47
2023/10/15 03:01:35;;;;;;;0.00;0.00;;;;;;;7.64;100.00;101727.47;5114835;28;20026;-45
2023/10/15 03:04:09;;;;;;;0.00;0.00;;;;;;;7.68;100.00;101727.00;5115132;28;20561;-45
2023/10/15 03:06:34;;;;;;;0.00;0.00;;;;;;;7.73;100.00;101721.25;5114813;28;20039;-46
2023/10/15 03:09:00;;;;;;;0.00;0.00;;;;;;;7.81;100.00;101720.53;5114581;28;20366;-44
2023/10/15 03:11:31;;;;;;;0.00;0.00;;;;;;;7.82;100.00;101719.53;5114218;28;20377;-43
2023/10/15 03:14:00;;;;;;;0.00;0.00;;;;;;;7.88;100.00;101727.03;5095077;28;20031;-44
2023/10/15 03:16:29;;;;;;;0.00;0.00;;;;;;;7.90;100.00;101728.56;5094849;28;20032;-43
2023/10/15 03:18:56;;;;;;;0.00;0.00;;;;;;;7.89;100.00;101742.09;5076983;28;20024;-40
2023/10/15 03:21:25;;;;;;;0.00;0.00;;;;;;;7.94;100.00;101739.84;5112574;28;20063;-42
2023/10/15 03:24:02;;;;;;;0.00;0.00;;;;;;;8.03;100.00;101741.69;5115721;27;20382;-44
2023/10/15 03:26:32;;;;;;;0.00;0.00;;;;;;;8.10;100.00;101739.25;5115138;28;20020;-42
2023/10/15 03:28:58;;;;;;;0.00;0.00;;;;;;;8.18;100.00;101734.00;5114361;28;20355;-43
2023/10/15 03:31:27;;;;;;;0.00;0.00;;;;;;;8.24;100.00;101738.81;5114290;28;20106;-43
2023/10/15 03:36:30;;;;;;;0.00;0.00;;;;;;;8.51;100.00;101742.59;5113274;28;20047;-45
2023/10/15 03:38:57;;;;;;;0.00;0.00;;;;;;;8.61;100.00;101734.47;5114036;28;20027;-41
2023/10/15 03:41:27;;;;;;;0.00;0.00;;;;;;;8.66;100.00;101734.88;5114392;28;20465;-44
2023/10/15 03:43:53;;;;;;;0.00;0.00;;;;;;;8.69;100.00;101735.47;5114471;28;20374;-44
2023/10/15 03:46:19;;;;;;;0.00;0.00;;;;;;;8.72;100.00;101731.63;5113341;28;20048;-43
2023/10/15 03:48:48;;;;;;;0.00;0.00;;;;;;;8.72;100.00;101731.63;5114115;28;20108;-44
2023/10/15 03:51:20;;;;;;;0.00;0.00;;;;;;;8.73;100.00;101722.56;5113556;28;20027;-46
2023/10/15 03:53:51;;;;;;;0.00;0.00;;;;;;;8.63;100.00;101733.34;5115321;27;20057;-44
2023/10/15 03:56:27;;;;;;;0.00;0.00;;;;;;;8.60;100.00;101732.81;5113590;28;20031;-41
2023/10/15 03:58:53;;;;;;;0.00;0.00;;;;;;;8.64;100.00;101728.84;5092518;28;20393;-43
2023/10/15 04:01:18;;;;;;;0.00;0.00;;;;;;;8.66;100.00;101725.03;5095997;28;20107;-42
2023/10/15 04:03:47;;;;;;;0.00;0.00;;;;;;;8.70;100.00;101730.94;5113612;28;20064;-43
2023/10/15 04:06:13;;;;;;;0.00;0.00;;;;;;;8.75;100.00;101721.44;5113401;28;20513;-43
2023/10/15 04:08:39;;;;;;;0.00;0.00;;;;;;;8.77;100.00;101722.13;5113703;28;20035;-43
2023/10/15 04:11:06;;;;;;;0.00;0.00;;;;;;;8.85;100.00;101713.34;5114680;28;20508;-43
2023/10/15 04:13:32;;;;;;;0.00;0.00;;;;;;;8.92;100.00;101717.09;5113666;28;20028;-43
2023/10/15 04:15:58;;;;;;;0.00;0.00;;;;;;;8.96;100.00;101715.81;5113230;28;20028;-43
2023/10/15 04:18:24;;;;;;;0.00;0.00;;;;;;;8.99;100.00;101712.81;5113324;28;20373;-43
2023/10/15 04:20:54;;;;;;;0.00;0.00;;;;;;;9.04;100.00;101706.19;5113218;28;20080;-45
2023/10/15 04:23:31;;;;;;;0.00;0.00;;;;;;;9.11;100.00;101712.63;5112945;28;20015;-44
2023/10/15 04:26:04;;;;;;;0.00;0.00;;;;;;;9.13;100.00;101716.84;5113483;28;20035;-45
2023/10/15 04:28:30;;;;;;;0.00;0.00;;;;;;;9.27;100.00;101728.94;5113148;28;20107;-45
2023/10/15 04:30:56;;;;;;;0.00;0.00;;;;;;;9.37;100.00;101744.97;5112951;28;20028;-43
2023/10/15 04:33:25;;;;;;;0.00;0.00;;;;;;;9.21;100.00;101756.38;5113184;28;20032;-47
2023/10/15 04:35:51;;;;;;;0.00;0.00;;;;;;;9.00;100.00;101768.25;5112539;28;20496;-46
2023/10/15 04:38:21;;;;;;;0.00;0.00;;;;;;;8.90;100.00;101769.25;5112586;28;20036;-46
2023/10/15 04:40:59;;;;;;;0.00;0.00;;;;;;;8.78;100.00;101761.41;5112858;28;20402;-46
2023/10/15 04:43:25;;;;;;;0.00;0.00;;;;;;;8.68;100.00;101768.63;5112734;28;20059;-43
2023/10/15 04:45:54;;;;;;;0.00;0.00;;;;;;;8.69;100.00;101750.69;5113705;28;20110;-42
2023/10/15 04:48:26;;;;;;;0.00;0.00;;;;;;;8.63;100.00;101770.91;5114930;28;20245;-40
2023/10/15 04:50:52;;;;;;;0.00;0.00;;;;;;;8.61;100.00;101770.25;5113274;28;20042;-43
2023/10/15 04:55:47;;;;;;;0.00;0.00;;;;;;;8.52;100.00;101763.88;5112475;28;20028;-40
2023/10/15 04:58:13;;;;;;;0.00;0.00;;;;;;;8.53;100.00;101762.91;5112463;28;20019;-44
2023/10/15 05:00:43;;;;;;;0.00;0.00;;;;;;;8.53;100.00;101762.91;5112322;28;20441;-44
2023/10/15 05:03:09;;;;;;;0.00;0.00;;;;;;;8.46;100.00;101761.81;5109955;28;20052;-42
2023/10/15 05:05:35;;;;;;;0.00;0.00;;;;;;;8.43;100.00;101756.72;5110464;28;20039;-43
2023/10/15 05:08:01;;;;;;;0.00;0.00;;;;;;;8.39;100.00;101766.03;5110025;28;20073;-44
2023/10/15 05:10:31;;;;;;;0.00;0.00;;;;;;;8.35;100.00;101754.75;5111490;28;20028;-45
2023/10/15 05:12:59;;;;;;;0.00;0.00;;;;;;;8.35;100.00;101745.84;5111460;28;20050;-46
2023/10/15 05:15:27;;;;;;;0.00;0.00;;;;;;;8.36;100.00;101742.16;5111631;28;20086;-43
2023/10/15 05:17:52;;;;;;;0.00;0.00;;;;;;;8.39;100.00;101754.44;5111867;28;20030;-44
2023/10/15 05:20:20;;;;;;;0.00;0.00;;;;;;;8.30;100.00;101754.31;5111088;28;20027;-42
2023/10/15 05:22:49;;;;;;;0.00;0.00;;;;;;;8.24;100.00;101752.22;5092317;28;20020;-42
2023/10/15 05:25:18;;;;;;;0.00;0.00;;;;;;;8.24;100.00;101756.72;5092135;28;20016;-42
2023/10/15 05:27:44;;;;;;;0.00;0.00;;;;;;;8.20;100.00;101758.84;5092507;28;20031;-42
2023/10/15 05:30:15;;;;;;;0.00;0.00;;;;;;;8.16;100.00;101764.66;5092610;28;20039;-42
2023/10/15 05:32:42;;;;;;;0.00;0.00;;;;;;;8.22;100.00;101774.81;5106785;28;20030;-43
2023/10/15 05:35:08;;;;;;;0.00;0.00;;;;;;;8.25;100.00;101771.84;5110578;28;20024;-42
2023/10/15 05:37:36;;;;;;;0.00;0.00;;;;;;;8.34;100.00;101762.91;5111635;28;20078;-45
2023/10/15 05:40:05;;;;;;;0.00;0.00;;;;;;;8.35;100.00;101760.09;5110902;28;20022;-44
2023/10/15 05:42:31;;;;;;;0.00;0.00;;;;;;;8.35;100.00;101754.75;5113549;27;20031;-45
2023/10/15 05:44:56;;;;;;;0.00;0.00;;;;;;;8.27;100.00;101757.31;5111001;28;20073;-45
2023/10/15 05:47:22;;;;;;;0.00;0.00;;;;;;;8.33;100.00;101778.16;5101158;28;20415;-46
2023/10/15 05:49:47;;;;;;;0.00;0.00;;;;;;;8.35;100.00;101775.34;5100498;28;20473;-44
2023/10/15 05:52:13;;;;;;;0.00;0.00;;;;;;;8.45;100.00;101781.59;5107962;28;20110;-42
2023/10/15 05:54:38;;;;;;;0.00;0.00;;;;;;;8.50;100.00;101781.97;5110437;28;20430;-42
2023/10/15 05:57:06;;;;;;;0.00;0.00;;;;;;;8.47;100.00;101800.19;5104150;28;20028;-42
2023/10/15 05:59:35;;;;;;;0.00;0.00;;;;;;;8.45;100.00;101797.69;5107591;28;20039;-43
2023/10/15 06:02:00;;;;;;;0.00;0.00;;;;;;;8.47;100.00;101795.66;5110873;28;20050;-46
2023/10/15 06:04:26;;;;;;;0.00;0.00;;;;;;;8.47;100.00;101793.00;5111026;28;20012;-43
2023/10/15 06:06:51;;;;;;;0.00;0.00;;;;;;;8.47;100.00;101779.56;5104396;28;20049;-45
2023/10/15 06:09:17;;;;;;;0.00;0.00;;;;;;;8.61;100.00;101790.84;5109275;28;20470;-43
2023/10/15 06:11:42;;;;;;;0.00;0.00;;;;;;;8.55;100.00;101793.09;5111302;28;20445;-43
2023/10/15 06:14:08;;;;;;;0.00;0.00;;;;;;;8.48;100.00;101793.84;5105594;28;20048;-42
2023/10/15 06:16:34;;;;;;;0.00;0.00;;;;;;;8.51;100.00;101799.78;5100554;28;20027;-44
2023/10/15 06:19:00;;;;;;;0.00;0.00;;;;;;;8.44;100.00;101812.06;5104316;28;20492;-45
2023/10/15 06:21:25;;;;;;;0.00;0.00;;;;;;;8.53;100.00;101803.16;5091072;28;20028;-43
2023/10/15 06:23:50;;;;;;;0.00;0.00;;;;;;;8.61;100.00;101801.56;5100159;28;20030;-44
2023/10/15 06:26:16;;;;;;;0.00;0.00;;;;;;;8.76;100.00;101802.78;5101311;28;20027;-43
2023/10/15 06:28:41;;;;;;;0.00;0.00;;;;;;;8.82;100.00;101810.28;5110619;28;20020;-42
2023/10/15 06:31:09;;;;;;;0.00;0.00;;;;;;;8.84;100.00;101813.63;5108370;28;20461;-42
2023/10/15 06:33:35;;;;;;;0.00;0.00;;;;;;;8.79;100.00;101797.13;5090237;28;20032;-43
2023/10/15 06:36:00;;;;;;;0.00;0.00;;;;;;;8.80;100.00;101801.53;5102884;28;20028;-45
2023/10/15 06:38:26;;;;;;;0.00;0.00;;;;;;;8.84;100.00;101794.84;5118594;27;20032;-45
2023/10/15 06:40:52;;;;;;;0.00;0.00;;;;;;;8.93;100.00;101795.81;5109070;28;20095;-44
2023/10/15 06:43:18;;;;;;;0.00;0.00;;;;;;;9.02;100.00;101817.25;5110057;28;20032;-46
2023/10/15 06:45:43;;;;;;;0.00;0.00;;;;;;;9.10;100.00;101797.72;5108126;28;20454;-42
2023/10/15 06:48:09;;;;;;;0.00;0.00;;;;;;;9.13;100.00;101807.31;5109364;28;20027;-43
2023/10/15 06:50:34;;;;;;;0.00;0.00;;;;;;;9.20;100.00;101803.03;5107497;28;20414;-43
2023/10/15 06:53:01;;;;;;;0.00;0.00;;;;;;;9.31;100.00;101816.25;5104539;28;20434;-45
2023/10/15 06:55:27;;;;;;;0.00;0.00;;;;;;;9.40;100.00;101812.69;5109586;28;20521;-44
2023/10/15 06:57:53;;;;;;;0.00;0.00;;;;;;;9.42;100.00;101834.00;5104562;28;20042;-44
2023/10/15 07:00:22;;;;;;;0.00;0.00;;;;;;;9.37;100.00;101834.50;5110653;28;20161;-47
2023/10/15 07:02:52;;;;;;;0.00;0.00;;;;;;;9.31;100.00;101837.75;5110109;28;20410;-44
2023/10/15 07:05:20;;;;;;;0.00;0.00;;;;;;;9.26;100.00;101845.41;5108520;28;20075;-46
2023/10/15 07:07:45;;;;;;;0.00;0.00;;;;;;;9.19;100.00;101841.66;5106862;28;20492;-45
2023/10/15 07:10:15;;;;;;;0.00;0.00;;;;;;;9.14;100.00;101841.25;5101410;28;20027;-44
2023/10/15 07:12:47;;;;;;;0.00;0.00;;;;;;;9.07;100.00;101851.72;5106522;28;20130;-47
2023/10/15 07:15:14;;;;;;;0.00;0.00;;;;;;;9.07;100.00;101850.88;5108550;28;20110;-46
2023/10/15 07:17:40;;;;;;;0.00;0.00;;;;;;;8.95;100.00;101861.81;5108177;28;20027;-44
2023/10/15 07:20:14;;;;;;;0.00;0.00;;;;;;;8.93;100.00;101868.31;5110563;28;20384;-43
2023/10/15 07:22:49;;;;;;;0.00;0.00;;;;;;;9.01;100.00;101874.63;5107556;28;20031;-48
2023/10/15 07:25:18;;;;;;;0.00;0.00;;;;;;;9.01;100.00;101874.63;5108355;28;20482;-45
2023/10/15 07:27:45;;;;;;;0.00;0.00;;;;;;;9.11;100.00;101889.84;5109066;28;20047;-43
2023/10/15 07:30:12;;;;;;;0.00;0.00;;;;;;;9.29;100.00;101890.78;5110519;28;20035;-44
2023/10/15 07:32:42;;;;;;;0.00;0.00;;;;;;;9.65;100.00;101893.59;5110363;28;20117;-43
2023/10/15 07:35:11;;;;;;;0.00;0.00;;;;;;;10.35;100.00;101898.34;5107938;28;20026;-41
2023/10/15 07:37:40;;;;;;;0.00;0.00;;;;;;;11.07;100.00;101889.13;5111876;28;20366;-46
2023/10/15 07:40:07;;;;;;;0.00;0.00;;;;;;;11.26;100.00;101884.53;5114114;28;20115;-43
2023/10/15 07:42:33;;;;;;;0.00;0.00;;;;;;;11.33;100.00;101912.53;5121279;27;20039;-44
2023/10/15 07:44:59;;;;;;;0.00;0.00;;;;;;;11.13;100.00;101898.44;5113259;28;20051;-43
2023/10/15 07:47:25;;;;;;;0.00;0.00;;;;;;;10.85;100.00;101911.19;5112136;28;20089;-44
2023/10/15 07:49:50;;;;;;;0.00;0.00;;;;;;;10.76;100.00;101919.22;5110811;28;20027;-45
2023/10/15 07:52:16;;;;;;;0.00;0.00;;;;;;;10.60;100.00;101927.19;5113834;28;20503;-44
2023/10/15 07:54:42;;;;;;;0.00;0.00;;;;;;;10.44;100.00;101925.19;5113616;27;20035;-45
2023/10/15 07:57:10;;;;;;;0.00;0.00;;;;;;;10.21;100.00;101915.84;5113665;28;20055;-44
2023/10/15 07:59:35;;;;;;;0.00;0.00;;;;;;;9.83;100.00;101915.97;5095448;28;20038;-44
2023/10/15 08:02:01;;;;;;;0.00;0.00;;;;;;;9.51;100.00;101923.66;5114040;28;20048;-47
2023/10/15 08:04:26;;;;;;;0.00;0.00;;;;;;;9.36;100.00;101924.13;5113952;28;20027;-47
2023/10/15 08:06:52;;;;;;;0.00;0.00;;;;;;;9.27;100.00;101927.72;5112008;27;20031;-43
2023/10/15 08:09:17;;;;;;;0.00;0.00;;;;;;;9.18;100.00;101918.66;5112401;28;20073;-45
2023/10/15 08:11:44;;;;;;;0.00;0.00;;;;;;;9.16;100.00;101934.09;5112980;28;20385;-45
2023/10/15 08:14:10;;;;;;;0.00;0.00;;;;;;;9.30;100.00;101953.44;5113957;28;20432;-43
2023/10/15 08:16:35;;;;;;;0.00;0.00;;;;;;;9.45;100.00;101968.06;5112495;28;20102;-45
2023/10/15 08:19:00;;;;;;;0.00;0.00;;;;;;;9.45;100.00;101978.81;5114250;28;20063;-42
2023/10/15 08:21:26;;;;;;;0.00;0.00;;;;;;;9.30;100.00;101983.00;5113579;28;20110;-44
2023/10/15 08:23:53;;;;;;;0.00;0.00;;;;;;;9.21;100.00;101977.47;5113436;28;20020;-44
2023/10/15 08:26:18;;;;;;;0.00;0.00;;;;;;;9.11;100.00;101982.03;5113378;28;20023;-45
2023/10/15 08:28:44;;;;;;;0.00;0.00;;;;;;;8.97;100.00;101980.63;5110847;28;20362;-45
2023/10/15 08:31:09;;;;;;;0.00;0.00;;;;;;;8.87;100.00;101981.63;5111641;28;20115;-44
2023/10/15 08:33:34;;;;;;;0.00;0.00;;;;;;;8.82;100.00;101976.72;5111845;28;20028;-45
2023/10/15 08:36:02;;;;;;;0.00;0.00;;;;;;;8.88;100.00;101983.34;5109443;28;20340;-45
2023/10/15 08:38:27;;;;;;;0.00;0.00;;;;;;;8.96;100.00;101989.69;5105934;28;20130;-44
2023/10/15 08:40:55;;;;;;;0.00;0.00;;;;;;;9.12;100.00;101993.63;5111154;28;20376;-44
2023/10/15 08:43:26;;;;;;;0.00;0.00;;;;;;;9.31;100.00;101990.03;5113124;28;20084;-45
2023/10/15 08:45:53;;;;;;;0.00;0.00;;;;;;;9.44;100.00;101990.56;5127418;27;20460;-46
2023/10/15 08:48:19;;;;;;;0.00;0.00;;;;;;;9.43;100.00;101996.94;5108177;28;20058;-41
2023/10/15 08:50:45;;;;;;;0.00;0.00;;;;;;;9.39;100.00;101998.22;5107183;28;20080;-43
2023/10/15 08:53:11;;;;;;;0.00;0.00;;;;;;;9.30;100.00;101997.25;5112893;28;20137;-45
2023/10/15 08:55:37;;;;;;;0.00;0.00;;;;;;;9.30;100.00;102012.53;5112003;28;20019;-46
2023/10/15 08:58:06;;;;;;;0.00;0.00;;;;;;;9.36;100.00;101999.34;5112120;28;20478;-42
2023/10/15 09:00:32;;;;;;;0.00;0.00;;;;;;;9.38;100.00;101992.00;5111829;28;20084;-46
2023/10/15 09:03:00;;;;;;;0.00;0.00;;;;;;;9.49;100.00;102007.09;5108434;28;20413;-47
2023/10/15 09:05:26;;;;;;;0.00;0.00;;;;;;;9.52;100.00;102001.44;5099843;28;20493;-43
2023/10/15 09:07:55;;;;;;;0.00;0.00;;;;;;;9.54;100.00;102012.03;5124886;27;20320;-43
2023/10/15 09:10:20;;;;;;;0.00;0.00;;;;;;;9.44;100.00;102004.84;5109107;28;20027;-44
2023/10/15 09:12:47;;;;;;;0.00;0.00;;;;;;;9.36;100.00;102007.41;5109634;28;20478;-44
2023/10/15 09:15:16;;;;;;;0.00;0.00;;;;;;;9.23;100.00;102007.72;5110449;28;20052;-42
2023/10/15 09:17:52;;;;;;;0.00;0.00;;;;;;;9.26;100.00;102019.19;5109635;28;20040;-43
2023/10/15 09:20:26;;;;;;;0.00;0.00;;;;;;;9.28;100.00;102020.72;5087969;28;20362;-42
2023/10/15 09:22:52;;;;;;;0.00;0.00;;;;;;;9.44;100.00;102026.34;5109895;28;20031;-41
2023/10/15 09:25:17;;;;;;;0.00;0.00;;;;;;;9.96;100.00;102030.41;5122232;27;20800;-45
2023/10/15 09:27:46;;;;;;;0.00;0.00;;;;;;;11.08;100.00;102032.75;5110901;27;20024;-46
2023/10/15 09:30:18;;;;;;;0.00;0.00;;;;;;;12.01;100.00;102031.19;5110637;28;20118;-44
2023/10/15 09:32:46;;;;;;;0.00;0.00;;;;;;;12.58;100.00;102030.50;5109377;28;20027;-44
2023/10/15 09:35:13;;;;;;;;;;;;;;;12.93;100.00;102033.94;5111346;27;20147;-44
2023/10/15 09:37:39;;;;;;;0.00;0.00;;;;;;;13.28;100.00;102037.34;5110117;28;19963;-48
2023/10/15 09:40:09;;;;;;;0.00;0.00;;;;;;;13.11;100.00;102039.16;5103821;28;20386;-42
2023/10/15 09:42:37;;;;;;;0.00;0.00;;;;;;;12.90;100.00;102050.47;5098124;28;20039;-43
2023/10/15 09:45:05;;;;;;;0.00;0.00;;;;;;;12.77;100.00;102055.50;5108558;28;20363;-47
2023/10/15 09:47:39;;;;;;;0.00;0.00;;;;;;;12.69;100.00;102065.31;5093786;28;20098;-43
2023/10/15 09:50:09;;;;;;;0.00;0.00;;;;;;;12.68;100.00;102065.47;5107153;28;20135;-46
2023/10/15 09:52:35;;;;;;;0.00;0.00;;;;;;;12.76;100.00;102079.00;5109935;28;20020;-44
2023/10/15 09:55:02;;;;;;;0.00;0.00;;;;;;;12.68;100.00;102073.56;5091808;28;20481;-45
2023/10/15 09:57:28;;;;;;;0.00;0.00;;;;;;;12.39;100.00;102088.34;5105559;28;20103;-44
2023/10/15 09:59:54;;;;;;;0.00;0.00;;;;;;;11.91;100.00;102099.78;5094077;28;20138;-49
2023/10/15 10:02:32;;;;;;;0.00;0.00;;;;;;;11.87;100.00;102101.91;5092196;28;20052;-42
2023/10/15 10:05:44;;;;;;;0.00;0.00;;;;;;;11.58;100.00;102094.97;5126026;27;20034;-46
2023/10/15 10:08:26;;;;;;;0.00;0.00;;;;;;;11.52;100.00;102081.28;5094371;28;20401;-45
2023/10/15 10:11:14;;;;;;;0.00;0.00;;;;;;;11.39;100.00;102081.69;5093402;28;20393;-41
2023/10/15 10:13:49;;;;;;;0.00;0.00;;;;;;;11.24;100.00;102076.00;5109399;28;20031;-43
2023/10/15 10:16:23;;;;;;;0.00;0.00;;;;;;;11.18;100.00;102076.63;5109565;28;20489;-47
2023/10/15 10:18:48;;;;;;;0.00;0.00;;;;;;;11.35;100.00;102078.47;5109936;28;20474;-45
2023/10/15 10:21:15;;;;;;;0.00;0.00;;;;;;;11.40;100.00;102075.28;5110560;28;20028;-46
2023/10/15 10:23:41;;;;;;;0.00;0.00;;;;;;;11.70;100.00;102081.25;5110467;28;20100;-44
2023/10/15 10:26:18;;;;;;;0.00;0.00;;;;;;;11.94;100.00;102089.50;5110759;28;20466;-45
2023/10/15 10:28:44;;;;;;;0.00;0.00;;;;;;;12.22;100.00;102086.59;5110121;28;20528;-47
2023/10/15 10:31:11;;;;;;;0.00;0.00;;;;;;;12.47;100.00;102091.06;5108407;28;20439;-44
2023/10/15 10:33:43;;;;;;;0.00;0.00;;;;;;;12.63;100.00;102100.22;5124315;27;20203;-43
2023/10/15 10:36:38;;;;;;;0.00;0.00;;;;;;;12.63;100.00;102094.81;5111089;28;20036;-46
2023/10/15 10:39:07;;;;;;;0.00;0.00;;;;;;;12.46;100.00;102100.19;5107101;28;20172;-43
2023/10/15 10:41:46;;;;;;;0.00;0.00;;;;;;;12.27;100.00;102103.16;5109027;28;20034;-44
2023/10/15 10:44:24;;;;;;;0.00;0.00;;;;;;;12.40;100.00;102110.78;5124853;27;20405;-40
2023/10/15 10:46:52;;;;;;;0.00;0.00;;;;;;;12.36;100.00;102104.03;5111304;28;20030;-45
2023/10/15 10:49:26;;;;;;;;;;;;;;;12.24;100.00;102108.84;5109294;28;20412;-46
2023/10/15 10:52:15;;;;;;;0.00;0.00;;;;;;;12.11;100.00;102111.16;5110299;28;19951;-46
2023/10/15 10:54:41;;;;;;;0.00;0.00;;;;;;;12.37;100.00;102114.66;5110671;28;20038;-43
2023/10/15 10:57:07;;;;;;;0.00;0.00;;;;;;;12.41;100.00;102118.72;5111239;28;20020;-45
2023/10/15 10:59:33;;;;;;;0.00;0.00;;;;;;;12.18;100.00;102128.41;5109566;28;20496;-44
2023/10/15 11:01:59;;;;;;;0.00;0.00;;;;;;;11.99;100.00;102124.94;5110226;28;20059;-44
2023/10/15 11:04:25;;;;;;;0.00;0.00;;;;;;;11.83;100.00;102131.03;5107722;28;20106;-43
2023/10/15 11:06:50;;;;;;;0.00;0.00;;;;;;;11.93;100.00;102138.19;5111600;28;20364;-41
2023/10/15 11:09:16;;;;;;;0.00;0.00;;;;;;;11.98;100.00;102133.19;5110753;28;20036;-44
2023/10/15 11:11:42;;;;;;;0.00;0.00;;;;;;;12.04;100.00;102137.94;5111526;28;20107;-44
2023/10/15 11:14:12;;;;;;;0.00;0.00;;;;;;;12.14;100.00;102137.81;5112884;28;20042;-42
2023/10/15 11:16:39;;;;;;;0.00;0.00;;;;;;;12.30;100.00;102144.16;5130241;27;20084;-41
2023/10/15 11:19:13;;;;;;;0.00;0.00;;;;;;;12.43;100.00;102140.19;5114820;28;20513;-44
2023/10/15 11:21:40;;;;;;;0.00;0.00;;;;;;;12.56;100.00;102131.59;5114731;28;20028;-44
2023/10/15 11:24:09;;;;;;;0.00;0.00;;;;;;;12.71;100.00;102130.81;5113076;28;20039;-41
2023/10/15 11:26:41;;;;;;;0.00;0.00;;;;;;;13.13;100.00;102139.84;5114103;28;20444;-42
2023/10/15 11:29:08;;;;;;;0.00;0.00;;;;;;;13.71;100.00;102144.28;5114863;28;20485;-43
2023/10/15 11:31:34;;;;;;;0.00;0.00;;;;;;;13.77;100.00;102157.13;5114661;28;20395;-42
2023/10/15 11:34:00;;;;;;;0.00;0.00;;;;;;;13.53;100.00;102157.13;5127555;27;20055;-44
2023/10/15 11:36:25;;;;;;;0.00;0.00;;;;;;;13.47;100.00;102152.41;5094663;28;20066;-44
2023/10/15 11:38:51;;;;;;;0.00;0.00;;;;;;;13.73;100.00;102168.47;5111727;28;20027;-42
2023/10/15 11:41:18;;;;;;;0.00;0.00;;;;;;;13.44;100.00;102174.38;5110100;28;20160;-40